sensor_id;sensor_type;location;lat;lon;timestamp;temperature;humidity
47414;DHT22;33163;0.000;0.000;2022-09-09T00:02:20;23.20;69.60
47414;DHT22;33163;0.000;0.000;2022-09-09T00:04:55;23.20;69.70
47414;DHT22;33163;0.000;0.000;2022-09-09T00:07:32;23.20;69.60
47414;DHT22;33163;0.000;0.000;2022-09-09T00:10:09;23.20;69.60
47414;DHT22;33163;0.000;0.000;2022-09-09T00:12:46;23.20;69.60
47414;DHT22;33163;0.000;0.000;2022-09-09T00:15:19;23.20;69.60
47414;DHT22;33163;0.000;0.000;2022-09-09T00:17:53;23.20;69.70
47414;DHT22;33163;0.000;0.000;2022-09-09T00:20:24;23.20;69.70
47414;DHT22;33163;0.000;0.000;2022-09-09T00:23:00;23.20;69.60
47414;DHT22;33163;0.000;0.000;2022-09-09T00:25:36;23.20;69.70
47414;DHT22;33163;0.000;0.000;2022-09-09T00:28:10;23.20;69.60
47414;DHT22;33163;0.000;0.000;2022-09-09T00:30:40;23.20;69.70
47414;DHT22;33163;0.000;0.000;2022-09-09T00:33:11;23.20;69.70
47414;DHT22;33163;0.000;0.000;2022-09-09T00:35:44;23.20;69.60
47414;DHT22;33163;0.000;0.000;2022-09-09T00:38:15;23.20;69.70
47414;DHT22;33163;0.000;0.000;2022-09-09T00:40:48;23.20;69.70
47414;DHT22;33163;0.000;0.000;2022-09-09T00:43:26;23.20;69.70
47414;DHT22;33163;0.000;0.000;2022-09-09T00:46:14;23.20;69.70
47414;DHT22;33163;0.000;0.000;2022-09-09T00:48:52;23.20;69.60
47414;DHT22;33163;0.000;0.000;2022-09-09T00:51:27;23.10;69.60
47414;DHT22;33163;0.000;0.000;2022-09-09T00:54:01;23.10;69.60
47414;DHT22;33163;0.000;0.000;2022-09-09T00:56:36;23.10;69.60
47414;DHT22;33163;0.000;0.000;2022-09-09T00:59:15;23.10;69.70
47414;DHT22;33163;0.000;0.000;2022-09-09T01:01:45;23.10;69.70
47414;DHT22;33163;0.000;0.000;2022-09-09T01:04:16;23.10;69.70
47414;DHT22;33163;0.000;0.000;2022-09-09T01:06:48;23.10;69.70
47414;DHT22;33163;0.000;0.000;2022-09-09T01:09:24;23.10;69.70
47414;DHT22;33163;0.000;0.000;2022-09-09T01:11:59;23.10;69.70
47414;DHT22;33163;0.000;0.000;2022-09-09T01:14:37;23.10;69.70
47414;DHT22;33163;0.000;0.000;2022-09-09T01:17:09;23.10;69.70
47414;DHT22;33163;0.000;0.000;2022-09-09T01:19:49;23.10;69.70
47414;DHT22;33163;0.000;0.000;2022-09-09T01:22:29;23.10;69.70
47414;DHT22;33163;0.000;0.000;2022-09-09T01:25:19;23.20;69.80
47414;DHT22;33163;0.000;0.000;2022-09-09T01:27:51;23.10;69.70
47414;DHT22;33163;0.000;0.000;2022-09-09T01:30:19;23.10;69.70
47414;DHT22;33163;0.000;0.000;2022-09-09T01:32:49;23.10;69.70
47414;DHT22;33163;0.000;0.000;2022-09-09T01:35:27;23.10;69.70
47414;DHT22;33163;0.000;0.000;2022-09-09T01:37:55;23.10;69.70
47414;DHT22;33163;0.000;0.000;2022-09-09T01:40:23;23.10;69.70
47414;DHT22;33163;0.000;0.000;2022-09-09T01:42:52;23.10;69.80
47414;DHT22;33163;0.000;0.000;2022-09-09T01:45:19;23.10;69.80
47414;DHT22;33163;0.000;0.000;2022-09-09T01:47:46;23.10;69.80
47414;DHT22;33163;0.000;0.000;2022-09-09T01:50:16;23.10;69.80
47414;DHT22;33163;0.000;0.000;2022-09-09T01:52:44;23.10;69.80
47414;DHT22;33163;0.000;0.000;2022-09-09T01:55:12;23.10;69.80
47414;DHT22;33163;0.000;0.000;2022-09-09T01:57:43;23.00;69.70
47414;DHT22;33163;0.000;0.000;2022-09-09T02:00:15;23.10;69.80
47414;DHT22;33163;0.000;0.000;2022-09-09T02:02:48;23.10;69.80
47414;DHT22;33163;0.000;0.000;2022-09-09T02:05:33;23.10;69.80
47414;DHT22;33163;0.000;0.000;2022-09-09T02:08:06;23.10;69.80
47414;DHT22;33163;0.000;0.000;2022-09-09T02:10:44;23.10;69.80
47414;DHT22;33163;0.000;0.000;2022-09-09T02:13:14;23.10;69.80
47414;DHT22;33163;0.000;0.000;2022-09-09T02:15:47;23.00;69.80
47414;DHT22;33163;0.000;0.000;2022-09-09T02:18:23;23.10;69.80
47414;DHT22;33163;0.000;0.000;2022-09-09T02:20:51;23.00;69.80
47414;DHT22;33163;0.000;0.000;2022-09-09T02:23:19;23.00;69.80
47414;DHT22;33163;0.000;0.000;2022-09-09T02:25:48;23.00;69.70
47414;DHT22;33163;0.000;0.000;2022-09-09T02:28:18;23.00;69.80
47414;DHT22;33163;0.000;0.000;2022-09-09T02:30:51;23.00;69.80
47414;DHT22;33163;0.000;0.000;2022-09-09T02:33:22;23.00;69.80
47414;DHT22;33163;0.000;0.000;2022-09-09T02:35:51;23.10;69.80
47414;DHT22;33163;0.000;0.000;2022-09-09T02:38:20;23.00;69.80
47414;DHT22;33163;0.000;0.000;2022-09-09T02:40:48;23.00;69.80
47414;DHT22;33163;0.000;0.000;2022-09-09T02:43:15;23.00;69.80
47414;DHT22;33163;0.000;0.000;2022-09-09T02:45:47;23.00;69.80
47414;DHT22;33163;0.000;0.000;2022-09-09T02:48:25;23.00;69.80
47414;DHT22;33163;0.000;0.000;2022-09-09T02:51:03;23.00;69.80
47414;DHT22;33163;0.000;0.000;2022-09-09T02:53:39;23.00;69.80
47414;DHT22;33163;0.000;0.000;2022-09-09T02:56:13;23.00;69.80
47414;DHT22;33163;0.000;0.000;2022-09-09T02:58:42;23.00;69.80
47414;DHT22;33163;0.000;0.000;2022-09-09T03:01:09;23.00;69.80
47414;DHT22;33163;0.000;0.000;2022-09-09T03:03:38;23.00;69.80
47414;DHT22;33163;0.000;0.000;2022-09-09T03:06:07;23.00;69.80
47414;DHT22;33163;0.000;0.000;2022-09-09T03:08:33;23.00;69.80
47414;DHT22;33163;0.000;0.000;2022-09-09T03:11:00;23.00;69.80
47414;DHT22;33163;0.000;0.000;2022-09-09T03:13:27;23.00;69.80
47414;DHT22;33163;0.000;0.000;2022-09-09T03:15:54;23.00;69.80
47414;DHT22;33163;0.000;0.000;2022-09-09T03:18:21;23.00;69.80
47414;DHT22;33163;0.000;0.000;2022-09-09T03:20:49;23.00;69.80
47414;DHT22;33163;0.000;0.000;2022-09-09T03:23:16;23.00;69.80
47414;DHT22;33163;0.000;0.000;2022-09-09T03:25:47;23.00;69.80
47414;DHT22;33163;0.000;0.000;2022-09-09T03:28:14;23.00;69.80
47414;DHT22;33163;0.000;0.000;2022-09-09T03:30:41;23.00;69.80
47414;DHT22;33163;0.000;0.000;2022-09-09T03:33:07;23.00;69.80
47414;DHT22;33163;0.000;0.000;2022-09-09T03:35:34;22.90;69.70
47414;DHT22;33163;0.000;0.000;2022-09-09T03:38:02;23.00;69.80
47414;DHT22;33163;0.000;0.000;2022-09-09T03:40:29;23.00;69.80
47414;DHT22;33163;0.000;0.000;2022-09-09T03:42:57;23.00;69.80
47414;DHT22;33163;0.000;0.000;2022-09-09T03:45:23;23.00;69.80
47414;DHT22;33163;0.000;0.000;2022-09-09T03:47:50;23.00;69.80
47414;DHT22;33163;0.000;0.000;2022-09-09T03:50:17;22.90;69.70
47414;DHT22;33163;0.000;0.000;2022-09-09T03:52:44;23.00;69.80
47414;DHT22;33163;0.000;0.000;2022-09-09T03:55:13;23.00;69.80
47414;DHT22;33163;0.000;0.000;2022-09-09T03:57:40;22.90;69.70
47414;DHT22;33163;0.000;0.000;2022-09-09T04:00:08;23.00;69.80
47414;DHT22;33163;0.000;0.000;2022-09-09T04:02:35;22.90;69.70
47414;DHT22;33163;0.000;0.000;2022-09-09T04:05:02;22.90;69.70
47414;DHT22;33163;0.000;0.000;2022-09-09T04:07:31;22.90;69.70
47414;DHT22;33163;0.000;0.000;2022-09-09T04:09:58;22.90;69.70
47414;DHT22;33163;0.000;0.000;2022-09-09T04:12:26;22.90;69.70
47414;DHT22;33163;0.000;0.000;2022-09-09T04:14:53;22.90;69.70
47414;DHT22;33163;0.000;0.000;2022-09-09T04:17:20;22.90;69.70
47414;DHT22;33163;0.000;0.000;2022-09-09T04:19:46;22.90;69.70
47414;DHT22;33163;0.000;0.000;2022-09-09T04:22:13;22.90;69.70
47414;DHT22;33163;0.000;0.000;2022-09-09T04:24:41;22.90;69.70
47414;DHT22;33163;0.000;0.000;2022-09-09T04:27:08;22.90;69.60
47414;DHT22;33163;0.000;0.000;2022-09-09T04:29:36;22.90;69.70
47414;DHT22;33163;0.000;0.000;2022-09-09T04:32:02;22.90;69.70
47414;DHT22;33163;0.000;0.000;2022-09-09T04:34:30;22.90;69.60
47414;DHT22;33163;0.000;0.000;2022-09-09T04:36:57;22.90;69.60
47414;DHT22;33163;0.000;0.000;2022-09-09T04:39:24;22.90;69.60
47414;DHT22;33163;0.000;0.000;2022-09-09T04:41:51;22.90;69.60
47414;DHT22;33163;0.000;0.000;2022-09-09T04:44:18;22.90;69.60
47414;DHT22;33163;0.000;0.000;2022-09-09T04:46:47;22.90;69.60
47414;DHT22;33163;0.000;0.000;2022-09-09T04:49:13;22.90;69.60
47414;DHT22;33163;0.000;0.000;2022-09-09T04:51:40;22.90;69.60
47414;DHT22;33163;0.000;0.000;2022-09-09T04:54:07;22.90;69.60
47414;DHT22;33163;0.000;0.000;2022-09-09T04:56:34;22.80;69.60
47414;DHT22;33163;0.000;0.000;2022-09-09T04:59:01;22.80;69.50
47414;DHT22;33163;0.000;0.000;2022-09-09T05:01:29;22.80;69.60
47414;DHT22;33163;0.000;0.000;2022-09-09T05:03:57;22.90;69.60
47414;DHT22;33163;0.000;0.000;2022-09-09T05:06:24;22.80;69.60
47414;DHT22;33163;0.000;0.000;2022-09-09T05:08:51;22.80;69.60
47414;DHT22;33163;0.000;0.000;2022-09-09T05:11:19;22.90;69.60
47414;DHT22;33163;0.000;0.000;2022-09-09T05:13:47;22.80;69.60
47414;DHT22;33163;0.000;0.000;2022-09-09T05:16:15;22.80;69.60
47414;DHT22;33163;0.000;0.000;2022-09-09T05:18:43;22.80;69.50
47414;DHT22;33163;0.000;0.000;2022-09-09T05:21:14;22.80;69.60
47414;DHT22;33163;0.000;0.000;2022-09-09T05:23:41;22.80;69.50
47414;DHT22;33163;0.000;0.000;2022-09-09T05:26:12;22.80;69.50
47414;DHT22;33163;0.000;0.000;2022-09-09T05:28:40;22.80;69.50
47414;DHT22;33163;0.000;0.000;2022-09-09T05:31:08;22.80;69.50
47414;DHT22;33163;0.000;0.000;2022-09-09T05:33:37;22.80;69.50
47414;DHT22;33163;0.000;0.000;2022-09-09T05:36:07;22.80;69.50
47414;DHT22;33163;0.000;0.000;2022-09-09T05:38:35;22.80;69.50
47414;DHT22;33163;0.000;0.000;2022-09-09T05:41:03;22.80;69.50
47414;DHT22;33163;0.000;0.000;2022-09-09T05:43:30;22.80;69.50
47414;DHT22;33163;0.000;0.000;2022-09-09T05:46:02;22.80;69.60
47414;DHT22;33163;0.000;0.000;2022-09-09T05:48:30;22.80;69.00
47414;DHT22;33163;0.000;0.000;2022-09-09T05:50:58;22.80;69.10
47414;DHT22;33163;0.000;0.000;2022-09-09T05:53:25;22.80;69.00
47414;DHT22;33163;0.000;0.000;2022-09-09T05:56:00;22.80;69.00
47414;DHT22;33163;0.000;0.000;2022-09-09T05:58:29;22.80;68.80
47414;DHT22;33163;0.000;0.000;2022-09-09T06:01:03;22.70;69.00
47414;DHT22;33163;0.000;0.000;2022-09-09T06:03:32;22.80;69.20
47414;DHT22;33163;0.000;0.000;2022-09-09T06:06:00;22.70;69.00
47414;DHT22;33163;0.000;0.000;2022-09-09T06:08:27;22.70;69.20
47414;DHT22;33163;0.000;0.000;2022-09-09T06:11:02;22.70;69.30
47414;DHT22;33163;0.000;0.000;2022-09-09T06:13:29;22.70;69.40
47414;DHT22;33163;0.000;0.000;2022-09-09T06:15:57;22.70;69.50
47414;DHT22;33163;0.000;0.000;2022-09-09T06:18:24;22.70;69.60
47414;DHT22;33163;0.000;0.000;2022-09-09T06:20:55;22.70;69.70
47414;DHT22;33163;0.000;0.000;2022-09-09T06:23:22;22.70;69.70
47414;DHT22;33163;0.000;0.000;2022-09-09T06:25:49;22.70;69.40
47414;DHT22;33163;0.000;0.000;2022-09-09T06:28:18;22.70;69.40
47414;DHT22;33163;0.000;0.000;2022-09-09T06:30:45;22.70;69.50
47414;DHT22;33163;0.000;0.000;2022-09-09T06:33:12;22.70;69.70
47414;DHT22;33163;0.000;0.000;2022-09-09T06:35:39;22.70;69.60
47414;DHT22;33163;0.000;0.000;2022-09-09T06:38:06;22.70;69.60
47414;DHT22;33163;0.000;0.000;2022-09-09T06:40:33;22.70;69.70
47414;DHT22;33163;0.000;0.000;2022-09-09T06:43:00;22.70;69.60
47414;DHT22;33163;0.000;0.000;2022-09-09T06:45:29;22.70;69.50
47414;DHT22;33163;0.000;0.000;2022-09-09T06:47:56;22.70;69.40
47414;DHT22;33163;0.000;0.000;2022-09-09T06:50:23;22.70;69.50
47414;DHT22;33163;0.000;0.000;2022-09-09T06:52:50;22.70;69.50
47414;DHT22;33163;0.000;0.000;2022-09-09T06:55:17;22.70;69.50
47414;DHT22;33163;0.000;0.000;2022-09-09T06:57:44;22.60;69.40
47414;DHT22;33163;0.000;0.000;2022-09-09T07:00:12;22.60;69.40
47414;DHT22;33163;0.000;0.000;2022-09-09T07:02:40;22.60;69.50
47414;DHT22;33163;0.000;0.000;2022-09-09T07:05:08;22.60;69.30
47414;DHT22;33163;0.000;0.000;2022-09-09T07:07:35;22.60;69.30
47414;DHT22;33163;0.000;0.000;2022-09-09T07:10:03;22.70;69.40
47414;DHT22;33163;0.000;0.000;2022-09-09T07:12:30;22.60;69.20
47414;DHT22;33163;0.000;0.000;2022-09-09T07:14:57;22.60;69.30
47414;DHT22;33163;0.000;0.000;2022-09-09T07:17:24;22.60;69.20
47414;DHT22;33163;0.000;0.000;2022-09-09T07:19:52;22.70;69.20
47414;DHT22;33163;0.000;0.000;2022-09-09T07:22:18;22.70;69.30
47414;DHT22;33163;0.000;0.000;2022-09-09T07:24:45;22.60;69.10
47414;DHT22;33163;0.000;0.000;2022-09-09T07:27:12;22.60;69.10
47414;DHT22;33163;0.000;0.000;2022-09-09T07:29:39;22.60;69.10
47414;DHT22;33163;0.000;0.000;2022-09-09T07:32:05;22.60;69.20
47414;DHT22;33163;0.000;0.000;2022-09-09T07:34:32;22.60;69.10
47414;DHT22;33163;0.000;0.000;2022-09-09T07:37:01;22.60;69.20
47414;DHT22;33163;0.000;0.000;2022-09-09T07:39:27;22.70;69.30
47414;DHT22;33163;0.000;0.000;2022-09-09T07:41:54;22.60;69.30
47414;DHT22;33163;0.000;0.000;2022-09-09T07:44:23;22.60;69.20
47414;DHT22;33163;0.000;0.000;2022-09-09T07:46:52;22.60;69.30
47414;DHT22;33163;0.000;0.000;2022-09-09T07:49:19;22.60;69.30
47414;DHT22;33163;0.000;0.000;2022-09-09T07:51:47;22.60;69.20
47414;DHT22;33163;0.000;0.000;2022-09-09T07:54:18;22.60;69.20
47414;DHT22;33163;0.000;0.000;2022-09-09T07:56:49;22.60;69.20
47414;DHT22;33163;0.000;0.000;2022-09-09T07:59:16;22.60;69.30
47414;DHT22;33163;0.000;0.000;2022-09-09T08:01:45;22.60;69.40
47414;DHT22;33163;0.000;0.000;2022-09-09T08:04:13;22.60;69.40
47414;DHT22;33163;0.000;0.000;2022-09-09T08:06:43;22.60;69.20
47414;DHT22;33163;0.000;0.000;2022-09-09T08:09:10;22.60;69.30
47414;DHT22;33163;0.000;0.000;2022-09-09T08:11:39;22.60;69.20
47414;DHT22;33163;0.000;0.000;2022-09-09T08:14:07;22.60;69.20
47414;DHT22;33163;0.000;0.000;2022-09-09T08:16:36;22.60;69.20
47414;DHT22;33163;0.000;0.000;2022-09-09T08:19:04;22.60;69.20
47414;DHT22;33163;0.000;0.000;2022-09-09T08:21:32;22.60;69.30
47414;DHT22;33163;0.000;0.000;2022-09-09T08:24:00;22.60;69.10
47414;DHT22;33163;0.000;0.000;2022-09-09T08:26:30;22.60;69.20
47414;DHT22;33163;0.000;0.000;2022-09-09T08:28:59;22.70;69.30
47414;DHT22;33163;0.000;0.000;2022-09-09T08:31:28;22.60;69.30
47414;DHT22;33163;0.000;0.000;2022-09-09T08:33:56;22.60;69.40
47414;DHT22;33163;0.000;0.000;2022-09-09T08:36:26;22.60;69.40
47414;DHT22;33163;0.000;0.000;2022-09-09T08:38:54;22.60;69.40
47414;DHT22;33163;0.000;0.000;2022-09-09T08:41:41;22.60;69.30
47414;DHT22;33163;0.000;0.000;2022-09-09T08:44:14;22.60;69.30
47414;DHT22;33163;0.000;0.000;2022-09-09T08:46:51;22.60;69.30
47414;DHT22;33163;0.000;0.000;2022-09-09T08:49:43;22.60;69.30
47414;DHT22;33163;0.000;0.000;2022-09-09T08:52:19;22.60;69.30
47414;DHT22;33163;0.000;0.000;2022-09-09T08:54:47;22.60;69.20
47414;DHT22;33163;0.000;0.000;2022-09-09T08:57:19;22.60;69.30
47414;DHT22;33163;0.000;0.000;2022-09-09T08:59:49;22.60;69.30
47414;DHT22;33163;0.000;0.000;2022-09-09T09:02:21;22.60;69.20
47414;DHT22;33163;0.000;0.000;2022-09-09T09:05:00;22.60;69.20
47414;DHT22;33163;0.000;0.000;2022-09-09T09:07:39;22.60;69.30
47414;DHT22;33163;0.000;0.000;2022-09-09T09:10:15;22.60;69.30
47414;DHT22;33163;0.000;0.000;2022-09-09T09:12:44;22.60;69.40
47414;DHT22;33163;0.000;0.000;2022-09-09T09:15:19;22.50;69.30
47414;DHT22;33163;0.000;0.000;2022-09-09T09:17:47;22.60;69.40
47414;DHT22;33163;0.000;0.000;2022-09-09T09:20:18;22.60;70.00
47414;DHT22;33163;0.000;0.000;2022-09-09T09:22:51;22.60;69.30
47414;DHT22;33163;0.000;0.000;2022-09-09T09:25:20;22.60;69.30
47414;DHT22;33163;0.000;0.000;2022-09-09T09:27:52;22.50;69.30
47414;DHT22;33163;0.000;0.000;2022-09-09T09:30:25;22.50;69.30
47414;DHT22;33163;0.000;0.000;2022-09-09T09:32:55;22.50;69.20
47414;DHT22;33163;0.000;0.000;2022-09-09T09:35:22;22.60;69.10
47414;DHT22;33163;0.000;0.000;2022-09-09T09:37:49;22.50;69.20
47414;DHT22;33163;0.000;0.000;2022-09-09T09:40:18;22.50;69.20
47414;DHT22;33163;0.000;0.000;2022-09-09T09:42:52;22.50;69.30
47414;DHT22;33163;0.000;0.000;2022-09-09T09:45:32;22.50;69.40
47414;DHT22;33163;0.000;0.000;2022-09-09T09:48:00;22.50;69.50
47414;DHT22;33163;0.000;0.000;2022-09-09T09:50:28;22.50;69.60
47414;DHT22;33163;0.000;0.000;2022-09-09T09:52:56;22.60;69.60
47414;DHT22;33163;0.000;0.000;2022-09-09T09:55:24;22.60;69.60
47414;DHT22;33163;0.000;0.000;2022-09-09T09:57:52;22.50;69.60
47414;DHT22;33163;0.000;0.000;2022-09-09T10:00:21;22.60;69.70
47414;DHT22;33163;0.000;0.000;2022-09-09T10:02:50;22.50;69.60
47414;DHT22;33163;0.000;0.000;2022-09-09T10:05:19;22.50;70.10
47414;DHT22;33163;0.000;0.000;2022-09-09T10:07:47;22.50;69.80
47414;DHT22;33163;0.000;0.000;2022-09-09T10:10:18;22.50;69.80
47414;DHT22;33163;0.000;0.000;2022-09-09T10:12:54;22.50;69.80
47414;DHT22;33163;0.000;0.000;2022-09-09T10:15:40;22.50;69.80
47414;DHT22;33163;0.000;0.000;2022-09-09T10:18:20;22.60;69.80
47414;DHT22;33163;0.000;0.000;2022-09-09T10:20:57;22.60;70.00
47414;DHT22;33163;0.000;0.000;2022-09-09T10:23:37;22.50;69.90
47414;DHT22;33163;0.000;0.000;2022-09-09T10:26:31;22.50;70.00
47414;DHT22;33163;0.000;0.000;2022-09-09T10:29:12;22.50;69.90
47414;DHT22;33163;0.000;0.000;2022-09-09T10:31:47;22.60;70.70
47414;DHT22;33163;0.000;0.000;2022-09-09T10:34:34;22.50;70.00
47414;DHT22;33163;0.000;0.000;2022-09-09T10:37:14;22.50;70.10
47414;DHT22;33163;0.000;0.000;2022-09-09T10:39:48;22.50;70.00
47414;DHT22;33163;0.000;0.000;2022-09-09T10:42:19;22.50;70.00
47414;DHT22;33163;0.000;0.000;2022-09-09T10:45:01;22.60;70.40
47414;DHT22;33163;0.000;0.000;2022-09-09T10:47:52;22.60;70.30
47414;DHT22;33163;0.000;0.000;2022-09-09T10:50:49;22.70;70.80
47414;DHT22;33163;0.000;0.000;2022-09-09T10:53:25;22.70;70.50
47414;DHT22;33163;0.000;0.000;2022-09-09T10:55:59;22.70;70.40
47414;DHT22;33163;0.000;0.000;2022-09-09T10:58:36;22.70;70.80
47414;DHT22;33163;0.000;0.000;2022-09-09T11:01:12;22.70;71.00
47414;DHT22;33163;0.000;0.000;2022-09-09T11:03:42;22.70;71.00
47414;DHT22;33163;0.000;0.000;2022-09-09T11:06:14;22.70;71.00
47414;DHT22;33163;0.000;0.000;2022-09-09T11:08:42;22.70;71.30
47414;DHT22;33163;0.000;0.000;2022-09-09T11:11:12;22.70;71.20
47414;DHT22;33163;0.000;0.000;2022-09-09T11:13:47;22.70;71.10
47414;DHT22;33163;0.000;0.000;2022-09-09T11:16:23;22.70;71.20
47414;DHT22;33163;0.000;0.000;2022-09-09T11:18:57;22.70;71.20
47414;DHT22;33163;0.000;0.000;2022-09-09T11:21:29;22.70;71.20
47414;DHT22;33163;0.000;0.000;2022-09-09T11:24:00;22.70;71.00
47414;DHT22;33163;0.000;0.000;2022-09-09T11:26:33;22.70;71.30
47414;DHT22;33163;0.000;0.000;2022-09-09T11:32:04;22.70;71.50
47414;DHT22;33163;0.000;0.000;2022-09-09T11:34:44;22.70;71.70
47414;DHT22;33163;0.000;0.000;2022-09-09T11:37:29;22.60;71.50
47414;DHT22;33163;0.000;0.000;2022-09-09T11:40:14;22.70;71.60
47414;DHT22;33163;0.000;0.000;2022-09-09T11:42:41;22.70;71.60
47414;DHT22;33163;0.000;0.000;2022-09-09T11:45:19;22.60;71.70
47414;DHT22;33163;0.000;0.000;2022-09-09T11:47:54;22.60;71.40
47414;DHT22;33163;0.000;0.000;2022-09-09T11:50:35;22.60;71.40
47414;DHT22;33163;0.000;0.000;2022-09-09T11:53:16;22.60;71.70
47414;DHT22;33163;0.000;0.000;2022-09-09T11:55:46;22.60;71.70
47414;DHT22;33163;0.000;0.000;2022-09-09T11:58:17;22.60;71.50
47414;DHT22;33163;0.000;0.000;2022-09-09T12:00:47;22.60;71.50
47414;DHT22;33163;0.000;0.000;2022-09-09T12:03:33;22.60;71.60
47414;DHT22;33163;0.000;0.000;2022-09-09T12:06:11;22.70;71.90
47414;DHT22;33163;0.000;0.000;2022-09-09T12:08:44;22.70;71.90
47414;DHT22;33163;0.000;0.000;2022-09-09T12:11:11;22.70;71.90
47414;DHT22;33163;0.000;0.000;2022-09-09T12:13:38;22.70;72.00
47414;DHT22;33163;0.000;0.000;2022-09-09T12:16:31;22.70;71.90
47414;DHT22;33163;0.000;0.000;2022-09-09T12:19:13;22.70;71.90
47414;DHT22;33163;0.000;0.000;2022-09-09T12:21:46;22.70;71.70
47414;DHT22;33163;0.000;0.000;2022-09-09T12:24:20;22.70;71.70
47414;DHT22;33163;0.000;0.000;2022-09-09T12:26:58;22.70;71.70
47414;DHT22;33163;0.000;0.000;2022-09-09T12:29:30;22.60;71.60
47414;DHT22;33163;0.000;0.000;2022-09-09T12:32:03;22.70;71.70
47414;DHT22;33163;0.000;0.000;2022-09-09T12:34:37;22.70;71.70
47414;DHT22;33163;0.000;0.000;2022-09-09T12:37:11;22.70;71.60
47414;DHT22;33163;0.000;0.000;2022-09-09T12:39:45;22.70;71.80
47414;DHT22;33163;0.000;0.000;2022-09-09T12:42:18;22.70;71.80
47414;DHT22;33163;0.000;0.000;2022-09-09T12:44:52;22.60;71.70
47414;DHT22;33163;0.000;0.000;2022-09-09T12:47:20;22.70;72.00
47414;DHT22;33163;0.000;0.000;2022-09-09T12:49:49;22.60;72.10
47414;DHT22;33163;0.000;0.000;2022-09-09T12:52:20;22.70;72.20
47414;DHT22;33163;0.000;0.000;2022-09-09T12:54:51;22.70;72.40
47414;DHT22;33163;0.000;0.000;2022-09-09T12:57:19;22.70;72.20
47414;DHT22;33163;0.000;0.000;2022-09-09T12:59:48;22.60;72.30
47414;DHT22;33163;0.000;0.000;2022-09-09T13:02:20;22.70;72.40
47414;DHT22;33163;0.000;0.000;2022-09-09T13:04:48;22.60;72.30
47414;DHT22;33163;0.000;0.000;2022-09-09T13:07:16;22.60;72.40
47414;DHT22;33163;0.000;0.000;2022-09-09T13:09:44;22.70;72.40
47414;DHT22;33163;0.000;0.000;2022-09-09T13:12:15;22.70;72.50
47414;DHT22;33163;0.000;0.000;2022-09-09T13:14:44;22.70;72.20
47414;DHT22;33163;0.000;0.000;2022-09-09T13:17:19;22.60;72.50
47414;DHT22;33163;0.000;0.000;2022-09-09T13:19:46;22.70;72.40
47414;DHT22;33163;0.000;0.000;2022-09-09T13:22:21;22.70;72.30
47414;DHT22;33163;0.000;0.000;2022-09-09T13:24:59;22.70;72.80
47414;DHT22;33163;0.000;0.000;2022-09-09T13:27:31;22.70;72.10
47414;DHT22;33163;0.000;0.000;2022-09-09T13:29:59;22.70;72.40
47414;DHT22;33163;0.000;0.000;2022-09-09T13:32:27;22.70;72.40
47414;DHT22;33163;0.000;0.000;2022-09-09T13:34:56;22.70;72.50
47414;DHT22;33163;0.000;0.000;2022-09-09T13:37:27;22.60;72.60
47414;DHT22;33163;0.000;0.000;2022-09-09T13:39:56;22.60;72.70
47414;DHT22;33163;0.000;0.000;2022-09-09T13:42:25;22.60;72.80
47414;DHT22;33163;0.000;0.000;2022-09-09T13:44:55;22.60;72.50
47414;DHT22;33163;0.000;0.000;2022-09-09T13:47:31;22.60;72.60
47414;DHT22;33163;0.000;0.000;2022-09-09T13:50:09;22.60;72.40
47414;DHT22;33163;0.000;0.000;2022-09-09T13:52:35;22.60;72.30
47414;DHT22;33163;0.000;0.000;2022-09-09T13:55:02;22.60;72.30
47414;DHT22;33163;0.000;0.000;2022-09-09T13:57:29;22.60;72.30
47414;DHT22;33163;0.000;0.000;2022-09-09T13:59:57;22.60;72.30
47414;DHT22;33163;0.000;0.000;2022-09-09T14:02:24;22.60;72.30
47414;DHT22;33163;0.000;0.000;2022-09-09T14:04:51;22.60;72.30
47414;DHT22;33163;0.000;0.000;2022-09-09T14:07:20;22.60;72.30
47414;DHT22;33163;0.000;0.000;2022-09-09T14:09:47;22.60;72.60
47414;DHT22;33163;0.000;0.000;2022-09-09T14:12:15;22.60;72.50
47414;DHT22;33163;0.000;0.000;2022-09-09T14:14:43;22.60;72.50
47414;DHT22;33163;0.000;0.000;2022-09-09T14:17:11;22.60;72.50
47414;DHT22;33163;0.000;0.000;2022-09-09T14:19:39;22.60;72.50
47414;DHT22;33163;0.000;0.000;2022-09-09T14:22:08;22.60;72.50
47414;DHT22;33163;0.000;0.000;2022-09-09T14:24:34;22.60;72.70
47414;DHT22;33163;0.000;0.000;2022-09-09T14:27:01;22.60;72.60
47414;DHT22;33163;0.000;0.000;2022-09-09T14:29:28;22.60;72.70
47414;DHT22;33163;0.000;0.000;2022-09-09T14:31:55;22.60;72.70
47414;DHT22;33163;0.000;0.000;2022-09-09T14:34:23;22.60;72.90
47414;DHT22;33163;0.000;0.000;2022-09-09T14:36:49;22.60;73.50
47414;DHT22;33163;0.000;0.000;2022-09-09T14:39:16;22.60;73.00
47414;DHT22;33163;0.000;0.000;2022-09-09T14:41:43;22.50;74.40
47414;DHT22;33163;0.000;0.000;2022-09-09T14:44:11;22.50;74.20
47414;DHT22;33163;0.000;0.000;2022-09-09T14:46:38;22.50;74.20
47414;DHT22;33163;0.000;0.000;2022-09-09T14:49:04;22.50;74.60
47414;DHT22;33163;0.000;0.000;2022-09-09T14:51:32;22.50;74.40
47414;DHT22;33163;0.000;0.000;2022-09-09T14:53:59;22.40;74.30
47414;DHT22;33163;0.000;0.000;2022-09-09T14:56:29;22.40;74.50
47414;DHT22;33163;0.000;0.000;2022-09-09T14:58:57;22.40;74.30
47414;DHT22;33163;0.000;0.000;2022-09-09T15:01:26;22.40;74.20
47414;DHT22;33163;0.000;0.000;2022-09-09T15:03:54;22.40;74.10
47414;DHT22;33163;0.000;0.000;2022-09-09T15:06:24;22.40;74.00
47414;DHT22;33163;0.000;0.000;2022-09-09T15:08:53;22.40;73.90
47414;DHT22;33163;0.000;0.000;2022-09-09T15:11:23;22.40;73.90
47414;DHT22;33163;0.000;0.000;2022-09-09T15:13:53;22.40;73.90
47414;DHT22;33163;0.000;0.000;2022-09-09T15:16:22;22.40;74.00
47414;DHT22;33163;0.000;0.000;2022-09-09T15:18:51;22.40;74.00
47414;DHT22;33163;0.000;0.000;2022-09-09T15:21:20;22.40;73.90
47414;DHT22;33163;0.000;0.000;2022-09-09T15:23:48;22.40;73.80
47414;DHT22;33163;0.000;0.000;2022-09-09T15:26:17;22.40;73.70
47414;DHT22;33163;0.000;0.000;2022-09-09T15:28:45;22.30;73.70
47414;DHT22;33163;0.000;0.000;2022-09-09T15:31:17;22.30;73.90
47414;DHT22;33163;0.000;0.000;2022-09-09T15:33:47;22.40;73.90
47414;DHT22;33163;0.000;0.000;2022-09-09T15:36:16;22.40;74.10
47414;DHT22;33163;0.000;0.000;2022-09-09T15:38:43;22.40;74.30
47414;DHT22;33163;0.000;0.000;2022-09-09T15:41:10;22.40;74.30
47414;DHT22;33163;0.000;0.000;2022-09-09T15:43:38;22.40;74.40
47414;DHT22;33163;0.000;0.000;2022-09-09T15:46:22;22.40;74.40
47414;DHT22;33163;0.000;0.000;2022-09-09T15:48:51;22.40;74.30
47414;DHT22;33163;0.000;0.000;2022-09-09T15:51:18;22.40;74.30
47414;DHT22;33163;0.000;0.000;2022-09-09T15:53:45;22.40;74.20
47414;DHT22;33163;0.000;0.000;2022-09-09T15:56:13;22.40;74.20
47414;DHT22;33163;0.000;0.000;2022-09-09T15:58:41;22.50;74.20
47414;DHT22;33163;0.000;0.000;2022-09-09T16:01:10;22.40;74.40
47414;DHT22;33163;0.000;0.000;2022-09-09T16:03:39;22.50;74.50
47414;DHT22;33163;0.000;0.000;2022-09-09T16:06:07;22.50;74.30
47414;DHT22;33163;0.000;0.000;2022-09-09T16:08:34;22.50;75.00
47414;DHT22;33163;0.000;0.000;2022-09-09T16:11:06;22.50;74.20